AirNav   TITAN Aviation Fuels
 
 585 users online  

6A4 Johnson County Airport
Mountain City, Tennessee, USA

GOING TO MOUNTAIN CITY?


FAA INFORMATION EFFECTIVE 26 JANUARY 2023

Location

FAA Identifier: 6A4
Lat/Long: 36-25-04.2430N 081-49-30.4820W
36-25.070717N 081-49.508033W
36.4178453,-81.8251339
(estimated)
Elevation: 2241.1 ft. / 683 m (estimated)
Variation: 07W (2010)
From city: 4 miles S of MOUNTAIN CITY, TN
Time zone: UTC -5 (UTC -4 during Daylight Saving Time)
Zip code: 37683

Airport Operations

Airport use: Open to the public
Activation date: 09/1971
Control tower: no
ARTCC: ATLANTA CENTER
FSS: NASHVILLE FLIGHT SERVICE STATION
NOTAMs facility: BNA (NOTAM-D service available)
Attendance: 0900-1800
AFT HR & SVC - AMGR.
Wind indicator: lighted
Segmented circle: yes

Airport Communications

CTAF/UNICOM: 122.7
WX AWOS-3: 126.225 (423-727-4365)
TRI CITY APPROACH: 134.425
TRI CITY DEPARTURE: 134.425
WX AWOS-3PT at 0A9 (17 nm W): 135.675 (423-543-1801)
WX AWOS-3 at VJI (19 nm NW): 128.125 (276-628-2940)
WX AWOS-3 at GEV (20 nm E): 120.675 (336-982-5555)
  • APCH/DEP SVC PRVDD BY ATLANTA ARTCC ON FREQS 125.15/263.0 (HICKORY RCAG) WHEN TRI-CITIES RGNL APCH CLSD.

Nearby radio navigation aids

VOR radial/distance  VOR name  Freq  Var
HMVr098/14.7HOLSTON MOUNTAIN VORTAC114.6004W
GZGr155/27.3GLADE SPRING VOR/DME110.2002W

 
NDB name  Hdg/Dist  Freq  Var  ID
HEMLOCK011/16.132002WBAR -... .- .-.
ASHEE275/24.341007WJUH .--- ..- ....

Airport Services

Fuel available: 100LL JET-A+
Parking: hangars and tiedowns
Airframe service: MAJOR
Powerplant service: MAJOR

Runway Information

Runway 6/24

Dimensions: 4498 x 75 ft. / 1371 x 23 m
Surface: asphalt, in good condition
Weight bearing capacity: 
Double wheel: 26.0
Double tandem: 37.0
RUNWAY 6  RUNWAY 24
Latitude: 36-24.875322N36-25.266085N
Longitude: 081-49.897715W081-49.118322W
Elevation: 2240.3 ft.2241.1 ft.
Traffic pattern: rightleft
Runway heading: 065 magnetic, 058 true245 magnetic, 238 true
Markings: nonprecision, in good conditionnonprecision, in good condition
Runway end identifier lights: nono
Touchdown point: yes, no lightsyes, no lights
Obstructions: 31 ft. tree, 770 ft. from runway, 41 ft. left of centerline, 18:1 slope to clear40 ft. tree, 734 ft. from runway, 93 ft. left of centerline, 13:1 slope to clear

Airport Ownership and Management from official FAA records

Ownership: Publicly-owned
Owner: JOHNSON COUNTY
CO COURTHSE; 222 W MAIN ST
MOUNTAIN CITY, TN 37683
Phone 423-727-9696
Manager: DAVE GARRIS
611 AIRPORT ROAD
MOUNTAIN CITY, TN 37683
Phone 423-727-1223

Airport Operational Statistics

Aircraft based on the field: 25
Single engine airplanes: 23
Multi engine airplanes: 2
    
Aircraft operations: avg 116/week *
66% local general aviation
30% transient general aviation
3% air taxi
1% military
* for 12-month period ending 02 August 2022

Additional Remarks

MT TRRN & HIGH PEAKS ALL QUADS; TSNT NIGHT OPS NOT RCMDD.
DEER & BIRDS INVOF ARPT.
COLD TEMPERATURE AIRPORT. ALTITUDE CORRECTION REQUIRED AT OR BELOW -10C.
FOR CD CTC ATLANTA ARTCC AT 770-210-7692.

Instrument Procedures

NOTE: All procedures below are presented as PDF files. If you need a reader for these files, you should download the free Adobe Reader.

NOT FOR NAVIGATION. Please procure official charts for flight.
FAA instrument procedures published for use from 26 January 2023 at 0901Z to 23 February 2023 at 0900z.

 
IAPs - Instrument Approach Procedures
RNAV (GPS) RWY 06   download
RNAV (GPS) RWY 24   download
NOTE: Special Take-Off Minimums/Departure Procedures apply   download (363KB)

Other nearby airports with instrument procedures:

0A9 - Elizabethton Municipal Airport (17 nm W)
KVJI - Virginia Highlands Airport (19 nm NW)
KGEV - Ashe County Airport (20 nm E)
KTRI - Tri-Cities Airport (28 nm W)
KMKJ - Mountain Empire Airport (37 nm NE)
 
Loc | Ops | Rwys | IFR | FBO | Links
Com | Nav | Svcs | Stats | Notes
Area around 6A4 (Johnson County Airport)
 
Road maps at: MapQuest Bing Google
 
Aerial photo
WARNING: Photo may not be current or correct
Aerial photo of 6A4 (Johnson County Airport)
Do you have a better or more recent aerial photo of Johnson County Airport that you would like to share? If so, please send us your photo.

 
Sectional chart

 
Airport distance calculator
Flying to Johnson County Airport? Find the distance to fly.

From to 6A4

Sunrise and sunset
Times for 29-Jan-2023
 Local
(UTC-5)
 Zulu
(UTC)
Morning civil twilight07:0512:05
Sunrise07:3212:32
Sunset17:4922:49
Evening civil twilight18:1623:16

Current date and time
Zulu (UTC)  29-Jan-2023 09:49:11
Local (UTC-5)  29-Jan-2023 04:49:11
 
METAR
KTNB 
16nm SE 
118.525 828-268-8921
290935Z AUTO 22003KT 10SM SCT110 04/M06 A3021 RMK AO2 T00361060
K0A9 
17nm W 
290935Z AUTO 06003KT 10SM 05/M01 A3021 RMK A01
KVJI 
18nm NW 
290935Z AUTO 00000KT 10SM OVC060 03/M03 A3020 RMK AO2 T00251031
KGEV 
20nm E 
290935Z AUTO 00000KT 10SM SCT095 BKN120 02/M06 A3021 RMK AO2 T00201059
KTRI 
28nm W 
290853Z 00000KT 10SM SCT070 OVC090 02/M02 A3021 RMK AO2 SLP224 RAB18E30 P0000 60000 T00221017 58014
TAF
KTRI 
28nm W 
290531Z 2906/3006 00000KT P6SM BKN150 OVC250 FM290900 00000KT P6SM OVC060 FM291100 00000KT 5SM -RA BR OVC045 FM291500 VRB03KT 4SM -RA BR OVC015 PROB30 2917/2920 2SM -RA BR OVC010 FM292000 00000KT 4SM BR OVC020 FM300200 00000KT 2SM BR OVC018 PROB30 3003/3006 1SM -RA BR OVC008
NOTAMs
Click for the latest NOTAMs
NOTAMs are issued by the DoD/FAA and will open in a separate window not controlled by AirNav.

 

 
 

FBO, Fuel Providers, and Aircraft Ground Support

  
 Business Name 
 
 Contact 
 
 Services / Description 
 
Fuel Prices
 
Comments
  
Doe Mountain Aviation Services 423-727-1223
no information available

If you are affiliated with Doe Mountain Aviation Services and would like to show here your services, contact info, web link, logo, and more, click here
100LL Jet A
FS $6.49 $5.85 
 Updated 20-Jan-2023
 
   2 read write
FS=Full service
Update Fuel Prices
 

Would you like to see your business listed on this page?

 If your business provides an interesting product or service to pilots, flight crews, aircraft, or users of the Johnson County Airport, you should consider listing it here.  To start the listing process, click on the button below
 
Add a business
 

Other Pages about Johnson County Airport

johnsoncountyairport.com
 
Update a link
 
Copyright © AirNav, LLC. All rights reserved. Privacy Policy  Contact